sensor_id;sensor_type;location;lat;lon;timestamp;temperature;humidity
40151;DHT22;25866;52.420;10.640;2022-12-18T00:00:53;-6.60;99.90
40151;DHT22;25866;52.420;10.640;2022-12-18T00:03:21;-6.80;99.90
40151;DHT22;25866;52.420;10.640;2022-12-18T00:05:50;-6.90;99.90
40151;DHT22;25866;52.420;10.640;2022-12-18T00:08:17;-6.90;99.90
40151;DHT22;25866;52.420;10.640;2022-12-18T00:10:44;-6.90;99.90
40151;DHT22;25866;52.420;10.640;2022-12-18T00:13:16;-6.80;99.90
40151;DHT22;25866;52.420;10.640;2022-12-18T00:15:41;-6.80;99.90
40151;DHT22;25866;52.420;10.640;2022-12-18T00:18:07;-6.70;99.90
40151;DHT22;25866;52.420;10.640;2022-12-18T00:20:37;-6.90;99.90
40151;DHT22;25866;52.420;10.640;2022-12-18T00:23:04;-7.00;99.90
40151;DHT22;25866;52.420;10.640;2022-12-18T00:25:33;-7.20;99.90
40151;DHT22;25866;52.420;10.640;2022-12-18T00:27:59;-7.20;99.90
40151;DHT22;25866;52.420;10.640;2022-12-18T00:30:25;-7.30;99.90
40151;DHT22;25866;52.420;10.640;2022-12-18T00:32:50;-7.20;99.90
40151;DHT22;25866;52.420;10.640;2022-12-18T00:35:21;-7.20;99.90
40151;DHT22;25866;52.420;10.640;2022-12-18T00:37:47;-7.10;99.90
40151;DHT22;25866;52.420;10.640;2022-12-18T00:40:13;-7.10;99.90
40151;DHT22;25866;52.420;10.640;2022-12-18T00:42:38;-7.10;99.90
40151;DHT22;25866;52.420;10.640;2022-12-18T00:45:28;-7.20;99.90
40151;DHT22;25866;52.420;10.640;2022-12-18T00:47:55;-7.10;99.90
40151;DHT22;25866;52.420;10.640;2022-12-18T00:50:22;-7.20;99.90
40151;DHT22;25866;52.420;10.640;2022-12-18T00:52:48;-7.20;99.90
40151;DHT22;25866;52.420;10.640;2022-12-18T00:55:14;-7.10;99.90
40151;DHT22;25866;52.420;10.640;2022-12-18T00:57:43;-7.10;99.90
40151;DHT22;25866;52.420;10.640;2022-12-18T01:00:13;-7.20;99.90
40151;DHT22;25866;52.420;10.640;2022-12-18T01:02:40;-7.10;99.90
40151;DHT22;25866;52.420;10.640;2022-12-18T01:05:06;-7.20;99.90
40151;DHT22;25866;52.420;10.640;2022-12-18T01:07:34;-7.10;99.90
40151;DHT22;25866;52.420;10.640;2022-12-18T01:10:00;-7.20;99.90
40151;DHT22;25866;52.420;10.640;2022-12-18T01:12:26;-7.20;99.90
40151;DHT22;25866;52.420;10.640;2022-12-18T01:14:52;-7.30;99.90
40151;DHT22;25866;52.420;10.640;2022-12-18T01:17:17;-7.30;99.90
40151;DHT22;25866;52.420;10.640;2022-12-18T01:19:43;-7.40;99.90
40151;DHT22;25866;52.420;10.640;2022-12-18T01:22:09;-7.40;99.90
40151;DHT22;25866;52.420;10.640;2022-12-18T01:24:34;-7.50;99.90
40151;DHT22;25866;52.420;10.640;2022-12-18T01:27:00;-7.50;99.90
40151;DHT22;25866;52.420;10.640;2022-12-18T01:29:26;-7.50;99.90
40151;DHT22;25866;52.420;10.640;2022-12-18T01:31:55;-7.60;99.90
40151;DHT22;25866;52.420;10.640;2022-12-18T01:34:21;-7.50;99.90
40151;DHT22;25866;52.420;10.640;2022-12-18T01:36:49;-7.60;99.90
40151;DHT22;25866;52.420;10.640;2022-12-18T01:39:18;-7.60;99.90
40151;DHT22;25866;52.420;10.640;2022-12-18T01:41:44;-7.60;99.90
40151;DHT22;25866;52.420;10.640;2022-12-18T01:50:32;-7.60;99.90
40151;DHT22;25866;52.420;10.640;2022-12-18T01:55:48;-7.60;99.90
40151;DHT22;25866;52.420;10.640;2022-12-18T01:58:16;-7.60;99.90
40151;DHT22;25866;52.420;10.640;2022-12-18T02:00:42;-7.60;99.90
40151;DHT22;25866;52.420;10.640;2022-12-18T02:03:08;-7.60;99.90
40151;DHT22;25866;52.420;10.640;2022-12-18T02:05:49;-7.60;99.90
40151;DHT22;25866;52.420;10.640;2022-12-18T02:08:40;-7.60;99.90
40151;DHT22;25866;52.420;10.640;2022-12-18T02:14:17;-7.70;99.90
40151;DHT22;25866;52.420;10.640;2022-12-18T02:16:45;-7.70;99.90
40151;DHT22;25866;52.420;10.640;2022-12-18T02:27:59;-7.90;99.90
40151;DHT22;25866;52.420;10.640;2022-12-18T02:30:27;-8.10;99.90
40151;DHT22;25866;52.420;10.640;2022-12-18T02:32:56;-8.10;99.90
40151;DHT22;25866;52.420;10.640;2022-12-18T02:35:29;-8.20;99.90
40151;DHT22;25866;52.420;10.640;2022-12-18T02:37:58;-8.10;99.90
40151;DHT22;25866;52.420;10.640;2022-12-18T02:40:26;-8.20;99.90
40151;DHT22;25866;52.420;10.640;2022-12-18T02:42:53;-8.20;99.90
40151;DHT22;25866;52.420;10.640;2022-12-18T02:45:18;-8.20;99.90
40151;DHT22;25866;52.420;10.640;2022-12-18T02:47:48;-8.20;99.90
40151;DHT22;25866;52.420;10.640;2022-12-18T02:53:17;-8.20;99.90
40151;DHT22;25866;52.420;10.640;2022-12-18T02:56:09;-8.30;99.90
40151;DHT22;25866;52.420;10.640;2022-12-18T02:59:02;-8.20;99.90
40151;DHT22;25866;52.420;10.640;2022-12-18T03:01:58;-8.20;99.90
40151;DHT22;25866;52.420;10.640;2022-12-18T03:04:30;-8.10;99.90
40151;DHT22;25866;52.420;10.640;2022-12-18T03:07:03;-8.10;99.90
40151;DHT22;25866;52.420;10.640;2022-12-18T03:09:42;-8.20;99.90
40151;DHT22;25866;52.420;10.640;2022-12-18T03:12:22;-8.30;99.90
40151;DHT22;25866;52.420;10.640;2022-12-18T03:14:57;-8.30;99.90
40151;DHT22;25866;52.420;10.640;2022-12-18T03:17:27;-8.40;99.90
40151;DHT22;25866;52.420;10.640;2022-12-18T03:19:55;-8.40;99.90
40151;DHT22;25866;52.420;10.640;2022-12-18T03:22:23;-8.50;99.90
40151;DHT22;25866;52.420;10.640;2022-12-18T03:24:51;-8.60;99.90
40151;DHT22;25866;52.420;10.640;2022-12-18T03:27:20;-8.50;99.90
40151;DHT22;25866;52.420;10.640;2022-12-18T03:29:59;-8.50;99.90
40151;DHT22;25866;52.420;10.640;2022-12-18T03:32:38;-8.50;99.90
40151;DHT22;25866;52.420;10.640;2022-12-18T03:35:07;-8.40;99.90
40151;DHT22;25866;52.420;10.640;2022-12-18T03:37:37;-8.40;99.90
40151;DHT22;25866;52.420;10.640;2022-12-18T03:40:04;-8.40;99.90
40151;DHT22;25866;52.420;10.640;2022-12-18T03:42:52;-8.30;99.90
40151;DHT22;25866;52.420;10.640;2022-12-18T03:45:32;-8.50;99.90
40151;DHT22;25866;52.420;10.640;2022-12-18T03:48:02;-8.40;99.90
40151;DHT22;25866;52.420;10.640;2022-12-18T03:56:02;-8.50;99.90
40151;DHT22;25866;52.420;10.640;2022-12-18T03:58:32;-8.50;99.90
40151;DHT22;25866;52.420;10.640;2022-12-18T04:01:01;-8.40;99.90
40151;DHT22;25866;52.420;10.640;2022-12-18T04:03:29;-8.50;99.90
40151;DHT22;25866;52.420;10.640;2022-12-18T04:05:58;-8.50;99.90
40151;DHT22;25866;52.420;10.640;2022-12-18T04:08:25;-8.50;99.90
40151;DHT22;25866;52.420;10.640;2022-12-18T04:10:51;-8.60;99.90
40151;DHT22;25866;52.420;10.640;2022-12-18T04:13:27;-8.70;99.90
40151;DHT22;25866;52.420;10.640;2022-12-18T04:15:54;-8.60;99.90
40151;DHT22;25866;52.420;10.640;2022-12-18T04:18:20;-8.60;99.90
40151;DHT22;25866;52.420;10.640;2022-12-18T04:20:45;-8.50;99.90
40151;DHT22;25866;52.420;10.640;2022-12-18T04:23:11;-8.60;99.90
40151;DHT22;25866;52.420;10.640;2022-12-18T04:25:37;-8.60;99.90
40151;DHT22;25866;52.420;10.640;2022-12-18T04:28:09;-8.60;99.90
40151;DHT22;25866;52.420;10.640;2022-12-18T04:30:35;-8.70;99.90
40151;DHT22;25866;52.420;10.640;2022-12-18T04:33:00;-8.80;99.90
40151;DHT22;25866;52.420;10.640;2022-12-18T04:35:26;-8.80;99.90
40151;DHT22;25866;52.420;10.640;2022-12-18T04:37:53;-9.00;99.90
40151;DHT22;25866;52.420;10.640;2022-12-18T04:40:19;-9.00;99.90
40151;DHT22;25866;52.420;10.640;2022-12-18T04:42:45;-8.90;99.90
40151;DHT22;25866;52.420;10.640;2022-12-18T04:45:10;-8.90;99.90
40151;DHT22;25866;52.420;10.640;2022-12-18T04:47:36;-8.90;99.90
40151;DHT22;25866;52.420;10.640;2022-12-18T04:50:02;-9.00;99.90
40151;DHT22;25866;52.420;10.640;2022-12-18T04:52:28;-9.30;99.90
40151;DHT22;25866;52.420;10.640;2022-12-18T04:54:53;-9.30;99.90
40151;DHT22;25866;52.420;10.640;2022-12-18T04:57:19;-9.20;99.90
40151;DHT22;25866;52.420;10.640;2022-12-18T04:59:46;-9.30;99.90
40151;DHT22;25866;52.420;10.640;2022-12-18T05:02:12;-9.30;99.90
40151;DHT22;25866;52.420;10.640;2022-12-18T05:04:37;-9.40;99.90
40151;DHT22;25866;52.420;10.640;2022-12-18T05:07:04;-9.30;99.90
40151;DHT22;25866;52.420;10.640;2022-12-18T05:09:30;-9.30;99.90
40151;DHT22;25866;52.420;10.640;2022-12-18T05:11:55;-9.30;99.90
40151;DHT22;25866;52.420;10.640;2022-12-18T05:14:21;-9.30;99.90
40151;DHT22;25866;52.420;10.640;2022-12-18T05:16:47;-9.30;99.90
40151;DHT22;25866;52.420;10.640;2022-12-18T05:19:15;-9.40;99.90
40151;DHT22;25866;52.420;10.640;2022-12-18T05:21:40;-9.50;99.90
40151;DHT22;25866;52.420;10.640;2022-12-18T05:24:06;-9.50;99.90
40151;DHT22;25866;52.420;10.640;2022-12-18T05:26:32;-9.40;99.90
40151;DHT22;25866;52.420;10.640;2022-12-18T05:28:58;-9.40;99.90
40151;DHT22;25866;52.420;10.640;2022-12-18T05:31:23;-9.40;99.90
40151;DHT22;25866;52.420;10.640;2022-12-18T05:33:49;-9.50;99.90
40151;DHT22;25866;52.420;10.640;2022-12-18T05:36:15;-9.40;99.90
40151;DHT22;25866;52.420;10.640;2022-12-18T05:38:42;-9.40;99.90
40151;DHT22;25866;52.420;10.640;2022-12-18T05:41:09;-9.40;99.90
40151;DHT22;25866;52.420;10.640;2022-12-18T05:43:36;-9.40;99.90
40151;DHT22;25866;52.420;10.640;2022-12-18T05:46:07;-9.50;99.90
40151;DHT22;25866;52.420;10.640;2022-12-18T05:48:35;-9.60;99.90
40151;DHT22;25866;52.420;10.640;2022-12-18T05:51:09;-9.70;99.90
40151;DHT22;25866;52.420;10.640;2022-12-18T05:53:35;-9.70;99.90
40151;DHT22;25866;52.420;10.640;2022-12-18T05:56:03;-9.70;99.90
40151;DHT22;25866;52.420;10.640;2022-12-18T05:58:30;-9.70;99.90
40151;DHT22;25866;52.420;10.640;2022-12-18T06:00:56;-9.60;99.90
40151;DHT22;25866;52.420;10.640;2022-12-18T06:03:22;-9.70;99.90
40151;DHT22;25866;52.420;10.640;2022-12-18T06:05:48;-9.60;99.90
40151;DHT22;25866;52.420;10.640;2022-12-18T06:08:14;-9.60;99.90
40151;DHT22;25866;52.420;10.640;2022-12-18T06:10:50;-9.60;99.90
40151;DHT22;25866;52.420;10.640;2022-12-18T06:13:18;-9.60;99.90
40151;DHT22;25866;52.420;10.640;2022-12-18T06:15:44;-9.60;99.90
40151;DHT22;25866;52.420;10.640;2022-12-18T06:18:10;-9.70;99.90
40151;DHT22;25866;52.420;10.640;2022-12-18T06:20:38;-9.80;99.90
40151;DHT22;25866;52.420;10.640;2022-12-18T06:23:06;-9.80;99.90
40151;DHT22;25866;52.420;10.640;2022-12-18T06:25:32;-9.70;99.90
40151;DHT22;25866;52.420;10.640;2022-12-18T06:27:58;-9.70;99.90
40151;DHT22;25866;52.420;10.640;2022-12-18T06:30:24;-9.60;99.90
40151;DHT22;25866;52.420;10.640;2022-12-18T06:32:50;-9.60;99.90
40151;DHT22;25866;52.420;10.640;2022-12-18T06:35:16;-9.70;99.90
40151;DHT22;25866;52.420;10.640;2022-12-18T06:37:42;-9.70;99.90
40151;DHT22;25866;52.420;10.640;2022-12-18T06:40:10;-9.80;99.90
40151;DHT22;25866;52.420;10.640;2022-12-18T06:42:36;-9.70;99.90
40151;DHT22;25866;52.420;10.640;2022-12-18T06:45:02;-9.80;99.90
40151;DHT22;25866;52.420;10.640;2022-12-18T06:47:28;-9.80;99.90
40151;DHT22;25866;52.420;10.640;2022-12-18T06:49:54;-9.80;99.90
40151;DHT22;25866;52.420;10.640;2022-12-18T06:52:20;-9.70;99.90
40151;DHT22;25866;52.420;10.640;2022-12-18T06:54:46;-9.70;99.90
40151;DHT22;25866;52.420;10.640;2022-12-18T06:57:11;-9.70;99.90
40151;DHT22;25866;52.420;10.640;2022-12-18T06:59:39;-9.80;99.90
40151;DHT22;25866;52.420;10.640;2022-12-18T07:02:05;-9.80;99.90
40151;DHT22;25866;52.420;10.640;2022-12-18T07:04:31;-9.80;99.90
40151;DHT22;25866;52.420;10.640;2022-12-18T07:06:57;-9.90;99.90
40151;DHT22;25866;52.420;10.640;2022-12-18T07:09:25;-9.90;99.90
40151;DHT22;25866;52.420;10.640;2022-12-18T07:11:51;-9.90;99.90
40151;DHT22;25866;52.420;10.640;2022-12-18T07:14:16;-9.90;99.90
40151;DHT22;25866;52.420;10.640;2022-12-18T07:16:42;-10.00;99.90
40151;DHT22;25866;52.420;10.640;2022-12-18T07:19:08;-10.00;99.90
40151;DHT22;25866;52.420;10.640;2022-12-18T07:21:33;-9.90;99.90
40151;DHT22;25866;52.420;10.640;2022-12-18T07:23:59;-9.90;99.90
40151;DHT22;25866;52.420;10.640;2022-12-18T07:26:25;-9.90;99.90
40151;DHT22;25866;52.420;10.640;2022-12-18T07:28:55;-10.00;99.90
40151;DHT22;25866;52.420;10.640;2022-12-18T07:31:23;-10.00;99.90
40151;DHT22;25866;52.420;10.640;2022-12-18T07:33:50;-10.10;99.90
40151;DHT22;25866;52.420;10.640;2022-12-18T07:36:16;-10.10;99.90
40151;DHT22;25866;52.420;10.640;2022-12-18T07:38:42;-10.10;99.90
40151;DHT22;25866;52.420;10.640;2022-12-18T07:41:14;-10.20;99.90
40151;DHT22;25866;52.420;10.640;2022-12-18T07:43:41;-10.20;99.90
40151;DHT22;25866;52.420;10.640;2022-12-18T07:46:07;-10.30;99.90
40151;DHT22;25866;52.420;10.640;2022-12-18T07:48:33;-10.30;99.90
40151;DHT22;25866;52.420;10.640;2022-12-18T07:51:04;-10.20;99.90
40151;DHT22;25866;52.420;10.640;2022-12-18T07:53:31;-10.20;99.90
40151;DHT22;25866;52.420;10.640;2022-12-18T07:55:58;-10.10;99.90
40151;DHT22;25866;52.420;10.640;2022-12-18T07:58:24;-10.10;99.90
40151;DHT22;25866;52.420;10.640;2022-12-18T08:00:51;-10.00;99.90
40151;DHT22;25866;52.420;10.640;2022-12-18T08:03:18;-9.90;99.90
40151;DHT22;25866;52.420;10.640;2022-12-18T08:05:44;-9.90;99.90
40151;DHT22;25866;52.420;10.640;2022-12-18T08:08:10;-9.90;99.90
40151;DHT22;25866;52.420;10.640;2022-12-18T08:10:37;-9.80;99.90
40151;DHT22;25866;52.420;10.640;2022-12-18T08:13:03;-9.80;99.90
40151;DHT22;25866;52.420;10.640;2022-12-18T08:15:29;-9.80;99.90
40151;DHT22;25866;52.420;10.640;2022-12-18T08:17:58;-9.70;99.90
40151;DHT22;25866;52.420;10.640;2022-12-18T08:20:24;-9.70;99.90
40151;DHT22;25866;52.420;10.640;2022-12-18T08:22:50;-9.60;99.90
40151;DHT22;25866;52.420;10.640;2022-12-18T08:25:16;-9.60;99.90
40151;DHT22;25866;52.420;10.640;2022-12-18T08:27:42;-9.50;99.90
40151;DHT22;25866;52.420;10.640;2022-12-18T08:30:14;-9.40;99.90
40151;DHT22;25866;52.420;10.640;2022-12-18T08:32:40;-9.30;99.90
40151;DHT22;25866;52.420;10.640;2022-12-18T08:35:06;-9.30;99.90
40151;DHT22;25866;52.420;10.640;2022-12-18T08:37:32;-9.20;99.90
40151;DHT22;25866;52.420;10.640;2022-12-18T08:39:58;-9.10;99.90
40151;DHT22;25866;52.420;10.640;2022-12-18T08:42:23;-9.00;99.90
40151;DHT22;25866;52.420;10.640;2022-12-18T08:45:08;-8.90;99.90
40151;DHT22;25866;52.420;10.640;2022-12-18T08:47:34;-8.80;99.90
40151;DHT22;25866;52.420;10.640;2022-12-18T08:49:59;-8.80;99.90
40151;DHT22;25866;52.420;10.640;2022-12-18T08:52:25;-8.70;99.90
40151;DHT22;25866;52.420;10.640;2022-12-18T08:54:51;-8.70;99.90
40151;DHT22;25866;52.420;10.640;2022-12-18T08:57:17;-8.70;99.90
40151;DHT22;25866;52.420;10.640;2022-12-18T08:59:42;-8.70;99.90
40151;DHT22;25866;52.420;10.640;2022-12-18T09:02:10;-8.70;99.90
40151;DHT22;25866;52.420;10.640;2022-12-18T09:04:36;-8.60;99.90
40151;DHT22;25866;52.420;10.640;2022-12-18T09:07:02;-8.60;99.90
40151;DHT22;25866;52.420;10.640;2022-12-18T09:09:28;-8.60;99.90
40151;DHT22;25866;52.420;10.640;2022-12-18T09:11:58;-8.50;99.90
40151;DHT22;25866;52.420;10.640;2022-12-18T09:14:25;-8.50;99.90
40151;DHT22;25866;52.420;10.640;2022-12-18T09:16:50;-8.40;99.90
40151;DHT22;25866;52.420;10.640;2022-12-18T09:19:22;-8.40;99.90
40151;DHT22;25866;52.420;10.640;2022-12-18T09:21:50;-8.30;99.90
40151;DHT22;25866;52.420;10.640;2022-12-18T09:24:16;-8.20;99.90
40151;DHT22;25866;52.420;10.640;2022-12-18T09:26:42;-8.10;99.90
40151;DHT22;25866;52.420;10.640;2022-12-18T09:29:08;-8.00;99.90
40151;DHT22;25866;52.420;10.640;2022-12-18T09:31:38;-7.90;99.90
40151;DHT22;25866;52.420;10.640;2022-12-18T09:34:05;-7.80;99.90
40151;DHT22;25866;52.420;10.640;2022-12-18T09:36:30;-7.70;99.90
40151;DHT22;25866;52.420;10.640;2022-12-18T09:38:56;-7.60;99.90
40151;DHT22;25866;52.420;10.640;2022-12-18T09:41:50;-7.50;99.90
40151;DHT22;25866;52.420;10.640;2022-12-18T09:44:41;-7.40;99.90
40151;DHT22;25866;52.420;10.640;2022-12-18T09:47:25;-7.30;99.90
40151;DHT22;25866;52.420;10.640;2022-12-18T09:49:59;-7.20;99.90
40151;DHT22;25866;52.420;10.640;2022-12-18T09:52:39;-7.10;99.90
40151;DHT22;25866;52.420;10.640;2022-12-18T09:55:24;-7.10;99.90
40151;DHT22;25866;52.420;10.640;2022-12-18T09:58:07;-7.00;99.90
40151;DHT22;25866;52.420;10.640;2022-12-18T10:00:37;-6.80;99.90
40151;DHT22;25866;52.420;10.640;2022-12-18T10:03:15;-6.80;99.90
40151;DHT22;25866;52.420;10.640;2022-12-18T10:06:12;-6.70;99.90
40151;DHT22;25866;52.420;10.640;2022-12-18T10:11:32;-6.50;99.90
40151;DHT22;25866;52.420;10.640;2022-12-18T10:19:49;-5.90;99.90
40151;DHT22;25866;52.420;10.640;2022-12-18T10:25:28;-5.70;99.90
40151;DHT22;25866;52.420;10.640;2022-12-18T10:28:00;-5.60;99.90
40151;DHT22;25866;52.420;10.640;2022-12-18T10:30:30;-5.50;99.90
40151;DHT22;25866;52.420;10.640;2022-12-18T10:33:01;-5.30;99.90
40151;DHT22;25866;52.420;10.640;2022-12-18T10:35:27;-5.20;99.90
40151;DHT22;25866;52.420;10.640;2022-12-18T10:38:29;-5.10;99.90
40151;DHT22;25866;52.420;10.640;2022-12-18T10:41:08;-5.10;99.90
40151;DHT22;25866;52.420;10.640;2022-12-18T10:43:43;-5.10;99.90
40151;DHT22;25866;52.420;10.640;2022-12-18T10:48:40;-5.00;99.90
40151;DHT22;25866;52.420;10.640;2022-12-18T10:51:08;-5.00;99.90
40151;DHT22;25866;52.420;10.640;2022-12-18T10:53:36;-4.90;99.90
40151;DHT22;25866;52.420;10.640;2022-12-18T10:56:04;-4.80;99.90
40151;DHT22;25866;52.420;10.640;2022-12-18T10:58:36;-4.70;99.90
40151;DHT22;25866;52.420;10.640;2022-12-18T11:03:37;-4.50;99.90
40151;DHT22;25866;52.420;10.640;2022-12-18T11:06:14;-4.30;99.90
40151;DHT22;25866;52.420;10.640;2022-12-18T11:08:42;-4.20;99.90
40151;DHT22;25866;52.420;10.640;2022-12-18T11:11:21;-4.10;99.90
40151;DHT22;25866;52.420;10.640;2022-12-18T11:14:33;-4.00;99.90
40151;DHT22;25866;52.420;10.640;2022-12-18T11:17:00;-3.90;99.90
40151;DHT22;25866;52.420;10.640;2022-12-18T11:19:34;-3.80;99.90
40151;DHT22;25866;52.420;10.640;2022-12-18T11:22:22;-3.70;99.90
40151;DHT22;25866;52.420;10.640;2022-12-18T11:25:05;-3.70;99.90
40151;DHT22;25866;52.420;10.640;2022-12-18T11:27:32;-3.70;99.90
40151;DHT22;25866;52.420;10.640;2022-12-18T11:35:37;-3.60;99.90
40151;DHT22;25866;52.420;10.640;2022-12-18T11:38:28;-3.70;99.90
40151;DHT22;25866;52.420;10.640;2022-12-18T11:44:32;-3.70;99.90
40151;DHT22;25866;52.420;10.640;2022-12-18T11:47:09;-3.60;99.90
40151;DHT22;25866;52.420;10.640;2022-12-18T11:49:39;-3.50;99.90
40151;DHT22;25866;52.420;10.640;2022-12-18T11:54:46;-3.40;99.90
40151;DHT22;25866;52.420;10.640;2022-12-18T12:05:50;-3.10;99.90
40151;DHT22;25866;52.420;10.640;2022-12-18T12:08:41;-3.00;99.90
40151;DHT22;25866;52.420;10.640;2022-12-18T12:11:27;-2.80;99.90
40151;DHT22;25866;52.420;10.640;2022-12-18T12:19:13;-2.50;99.90
40151;DHT22;25866;52.420;10.640;2022-12-18T12:24:39;-2.50;99.90
40151;DHT22;25866;52.420;10.640;2022-12-18T12:27:36;-2.40;99.90
40151;DHT22;25866;52.420;10.640;2022-12-18T12:30:26;-2.40;99.90
40151;DHT22;25866;52.420;10.640;2022-12-18T12:35:43;-2.30;99.90
40151;DHT22;25866;52.420;10.640;2022-12-18T12:38:27;-2.20;99.90
40151;DHT22;25866;52.420;10.640;2022-12-18T12:41:01;-2.20;99.90
40151;DHT22;25866;52.420;10.640;2022-12-18T12:43:33;-2.10;99.90
40151;DHT22;25866;52.420;10.640;2022-12-18T12:46:06;-2.00;99.90
40151;DHT22;25866;52.420;10.640;2022-12-18T12:48:51;-2.00;99.90
40151;DHT22;25866;52.420;10.640;2022-12-18T12:51:26;-1.80;99.90
40151;DHT22;25866;52.420;10.640;2022-12-18T12:54:02;-1.60;99.90
40151;DHT22;25866;52.420;10.640;2022-12-18T12:56:57;-1.50;99.90
40151;DHT22;25866;52.420;10.640;2022-12-18T13:09:09;-1.50;99.90
40151;DHT22;25866;52.420;10.640;2022-12-18T13:11:39;-1.60;99.90
40151;DHT22;25866;52.420;10.640;2022-12-18T13:14:30;-1.60;99.90
40151;DHT22;25866;52.420;10.640;2022-12-18T13:17:35;-1.70;99.90
40151;DHT22;25866;52.420;10.640;2022-12-18T13:20:08;-1.80;99.90
40151;DHT22;25866;52.420;10.640;2022-12-18T13:22:49;-1.90;99.90
40151;DHT22;25866;52.420;10.640;2022-12-18T13:25:36;-1.90;99.90
40151;DHT22;25866;52.420;10.640;2022-12-18T13:28:10;-2.10;99.90
40151;DHT22;25866;52.420;10.640;2022-12-18T13:30:46;-2.10;99.90
40151;DHT22;25866;52.420;10.640;2022-12-18T13:35:52;-2.30;99.90
40151;DHT22;25866;52.420;10.640;2022-12-18T13:41:01;-2.30;99.90
40151;DHT22;25866;52.420;10.640;2022-12-18T13:43:33;-2.30;99.90
40151;DHT22;25866;52.420;10.640;2022-12-18T13:46:05;-2.40;99.90
40151;DHT22;25866;52.420;10.640;2022-12-18T13:48:35;-2.40;99.90
40151;DHT22;25866;52.420;10.640;2022-12-18T13:51:07;-2.40;99.90
40151;DHT22;25866;52.420;10.640;2022-12-18T13:53:54;-2.40;99.90
40151;DHT22;25866;52.420;10.640;2022-12-18T13:56:33;-2.50;99.90
40151;DHT22;25866;52.420;10.640;2022-12-18T14:01:44;-2.50;99.90
40151;DHT22;25866;52.420;10.640;2022-12-18T14:04:22;-2.40;99.90
40151;DHT22;25866;52.420;10.640;2022-12-18T14:06:52;-2.40;99.90
40151;DHT22;25866;52.420;10.640;2022-12-18T14:09:26;-2.40;99.90
40151;DHT22;25866;52.420;10.640;2022-12-18T14:11:52;-2.40;99.90
40151;DHT22;25866;52.420;10.640;2022-12-18T14:14:47;-2.40;99.90
40151;DHT22;25866;52.420;10.640;2022-12-18T14:17:15;-2.40;99.90
40151;DHT22;25866;52.420;10.640;2022-12-18T14:19:43;-2.30;99.90
40151;DHT22;25866;52.420;10.640;2022-12-18T14:22:17;-2.30;99.90
40151;DHT22;25866;52.420;10.640;2022-12-18T14:25:24;-2.30;99.90
40151;DHT22;25866;52.420;10.640;2022-12-18T14:28:07;-2.40;99.90
40151;DHT22;25866;52.420;10.640;2022-12-18T14:30:42;-2.40;99.90
40151;DHT22;25866;52.420;10.640;2022-12-18T14:35:55;-2.50;99.90
40151;DHT22;25866;52.420;10.640;2022-12-18T14:38:23;-2.60;99.90
40151;DHT22;25866;52.420;10.640;2022-12-18T14:41:14;-2.70;99.90
40151;DHT22;25866;52.420;10.640;2022-12-18T14:43:42;-2.70;99.90
40151;DHT22;25866;52.420;10.640;2022-12-18T14:46:42;-2.80;99.90
40151;DHT22;25866;52.420;10.640;2022-12-18T14:51:52;-2.90;99.90
40151;DHT22;25866;52.420;10.640;2022-12-18T14:54:20;-2.90;99.90
40151;DHT22;25866;52.420;10.640;2022-12-18T14:56:49;-3.10;99.90
40151;DHT22;25866;52.420;10.640;2022-12-18T14:59:20;-3.10;99.90
40151;DHT22;25866;52.420;10.640;2022-12-18T15:04:31;-3.20;99.90
40151;DHT22;25866;52.420;10.640;2022-12-18T15:07:18;-3.20;99.90
40151;DHT22;25866;52.420;10.640;2022-12-18T15:20:58;-3.30;99.90
40151;DHT22;25866;52.420;10.640;2022-12-18T15:26:13;-3.30;99.90
40151;DHT22;25866;52.420;10.640;2022-12-18T15:28:54;-3.40;99.90
40151;DHT22;25866;52.420;10.640;2022-12-18T15:31:30;-3.40;99.90
40151;DHT22;25866;52.420;10.640;2022-12-18T15:36:24;-3.40;99.90
40151;DHT22;25866;52.420;10.640;2022-12-18T15:38:52;-3.40;99.90
40151;DHT22;25866;52.420;10.640;2022-12-18T15:41:20;-3.40;99.90
40151;DHT22;25866;52.420;10.640;2022-12-18T15:43:51;-3.40;99.90
40151;DHT22;25866;52.420;10.640;2022-12-18T15:46:22;-3.50;99.90
40151;DHT22;25866;52.420;10.640;2022-12-18T15:48:51;-3.50;99.90
40151;DHT22;25866;52.420;10.640;2022-12-18T15:51:18;-3.50;99.90
40151;DHT22;25866;52.420;10.640;2022-12-18T15:53:46;-3.50;99.90
40151;DHT22;25866;52.420;10.640;2022-12-18T15:56:14;-3.40;99.90
40151;DHT22;25866;52.420;10.640;2022-12-18T15:58:59;-3.50;99.90
40151;DHT22;25866;52.420;10.640;2022-12-18T16:01:29;-3.50;99.90
40151;DHT22;25866;52.420;10.640;2022-12-18T16:03:55;-3.50;99.90
40151;DHT22;25866;52.420;10.640;2022-12-18T16:06:22;-3.50;99.90
40151;DHT22;25866;52.420;10.640;2022-12-18T16:08:48;-3.50;99.90
40151;DHT22;25866;52.420;10.640;2022-12-18T16:11:26;-3.50;99.90
40151;DHT22;25866;52.420;10.640;2022-12-18T16:14:20;-3.40;99.90
40151;DHT22;25866;52.420;10.640;2022-12-18T16:16:49;-3.40;99.90
40151;DHT22;25866;52.420;10.640;2022-12-18T16:19:15;-3.40;99.90
40151;DHT22;25866;52.420;10.640;2022-12-18T16:21:42;-3.40;99.90
40151;DHT22;25866;52.420;10.640;2022-12-18T16:24:29;-3.40;99.90
40151;DHT22;25866;52.420;10.640;2022-12-18T16:26:57;-3.30;99.90
40151;DHT22;25866;52.420;10.640;2022-12-18T16:29:25;-3.30;99.90
40151;DHT22;25866;52.420;10.640;2022-12-18T16:32:00;-3.20;99.90
40151;DHT22;25866;52.420;10.640;2022-12-18T16:34:31;-3.00;99.90
40151;DHT22;25866;52.420;10.640;2022-12-18T16:36:58;-3.10;99.90
40151;DHT22;25866;52.420;10.640;2022-12-18T16:39:25;-3.00;99.90
40151;DHT22;25866;52.420;10.640;2022-12-18T16:41:51;-3.00;99.90
40151;DHT22;25866;52.420;10.640;2022-12-18T16:44:17;-3.00;99.90
40151;DHT22;25866;52.420;10.640;2022-12-18T16:46:43;-3.00;99.90
40151;DHT22;25866;52.420;10.640;2022-12-18T16:49:12;-2.90;99.90
40151;DHT22;25866;52.420;10.640;2022-12-18T16:51:38;-2.90;99.90
40151;DHT22;25866;52.420;10.640;2022-12-18T16:54:04;-3.00;99.90
40151;DHT22;25866;52.420;10.640;2022-12-18T16:56:31;-2.90;99.90
40151;DHT22;25866;52.420;10.640;2022-12-18T16:58:59;-3.00;99.90
40151;DHT22;25866;52.420;10.640;2022-12-18T17:01:26;-3.00;99.90
40151;DHT22;25866;52.420;10.640;2022-12-18T17:04:00;-3.00;99.90
40151;DHT22;25866;52.420;10.640;2022-12-18T17:06:28;-3.00;99.90
40151;DHT22;25866;52.420;10.640;2022-12-18T17:08:59;-3.00;99.90
40151;DHT22;25866;52.420;10.640;2022-12-18T17:11:27;-3.00;99.90
40151;DHT22;25866;52.420;10.640;2022-12-18T17:13:53;-3.00;99.90
40151;DHT22;25866;52.420;10.640;2022-12-18T17:16:19;-3.00;99.90
40151;DHT22;25866;52.420;10.640;2022-12-18T17:18:46;-2.90;99.90
40151;DHT22;25866;52.420;10.640;2022-12-18T17:21:12;-2.90;99.90
40151;DHT22;25866;52.420;10.640;2022-12-18T17:23:40;-2.90;99.90
40151;DHT22;25866;52.420;10.640;2022-12-18T17:26:06;-2.90;99.90
40151;DHT22;25866;52.420;10.640;2022-12-18T17:28:35;-2.80;99.90
40151;DHT22;25866;52.420;10.640;2022-12-18T17:31:01;-2.80;99.90
40151;DHT22;25866;52.420;10.640;2022-12-18T17:33:27;-2.80;99.90
40151;DHT22;25866;52.420;10.640;2022-12-18T17:35:53;-2.80;99.90